KELM/ELM METAR and TAF weather

Enter ICAO airport designator
Station Type Date Time Source
KELM METAR 2024/06/15 22:53 UTC NOAA

KELM 152253Z 02011KT 10SM CLR 22/10 A3011 RMK AO2 SLP195 T02220100


Station Type Date Time Source
KELM Decoded METAR 2024/06/15 22:53 UTC NOAA

ELMIRA COUNTY AIRPORT, NY, United States (KELM) 42-10N 76-54W 302M
Jun 15, 2024 - 06:53 PM EDT / 2024.06.15 2253 UTC
Wind: from the NNE (020 degrees) at 13 MPH (11 KT):0
Visibility: 10 mile(s):0
Sky conditions: clear
Temperature: 72.0 F (22.2 C)
Dew Point: 50.0 F (10.0 C)
Relative Humidity: 45%
Pressure (altimeter): 30.11 in. Hg (1019 hPa)
ob: KELM 152253Z 02011KT 10SM CLR 22/10 A3011 RMK AO2 SLP195 T02220100
cycle: 23

Station Type Date Time Source
KELM TAF 2024/06/15 18:24 UTC NOAA